sensor_id;sensor_type;location;lat;lon;timestamp;P1;durP1;ratioP1;P2;durP2;ratioP2
22256;SDS011;11297;42.686;23.374;2022-09-27T00:00:14;7.30;;;6.60;;
22256;SDS011;11297;42.686;23.374;2022-09-27T00:02:40;7.77;;;6.67;;
22256;SDS011;11297;42.686;23.374;2022-09-27T00:05:05;7.70;;;6.97;;
22256;SDS011;11297;42.686;23.374;2022-09-27T00:07:31;7.70;;;7.00;;
22256;SDS011;11297;42.686;23.374;2022-09-27T00:09:57;7.20;;;6.60;;
22256;SDS011;11297;42.686;23.374;2022-09-27T00:12:22;7.40;;;6.57;;
22256;SDS011;11297;42.686;23.374;2022-09-27T00:14:48;7.83;;;6.87;;
22256;SDS011;11297;42.686;23.374;2022-09-27T00:17:13;7.40;;;6.70;;
22256;SDS011;11297;42.686;23.374;2022-09-27T00:19:38;6.03;;;5.53;;
22256;SDS011;11297;42.686;23.374;2022-09-27T00:22:04;7.07;;;6.40;;
22256;SDS011;11297;42.686;23.374;2022-09-27T00:24:29;7.73;;;5.73;;
22256;SDS011;11297;42.686;23.374;2022-09-27T00:26:55;5.37;;;4.87;;
22256;SDS011;11297;42.686;23.374;2022-09-27T00:29:21;6.33;;;5.73;;
22256;SDS011;11297;42.686;23.374;2022-09-27T00:31:46;6.67;;;5.97;;
22256;SDS011;11297;42.686;23.374;2022-09-27T00:34:15;7.23;;;6.60;;
22256;SDS011;11297;42.686;23.374;2022-09-27T00:36:44;8.77;;;7.57;;
22256;SDS011;11297;42.686;23.374;2022-09-27T00:39:09;8.40;;;7.53;;
22256;SDS011;11297;42.686;23.374;2022-09-27T00:41:35;8.03;;;7.30;;
22256;SDS011;11297;42.686;23.374;2022-09-27T00:44:46;8.57;;;7.00;;
22256;SDS011;11297;42.686;23.374;2022-09-27T00:47:00;7.80;;;6.97;;
22256;SDS011;11297;42.686;23.374;2022-09-27T00:49:32;11.23;;;7.87;;
22256;SDS011;11297;42.686;23.374;2022-09-27T00:52:03;7.87;;;7.07;;
22256;SDS011;11297;42.686;23.374;2022-09-27T00:54:32;7.20;;;6.50;;
22256;SDS011;11297;42.686;23.374;2022-09-27T00:57:01;7.40;;;6.70;;
22256;SDS011;11297;42.686;23.374;2022-09-27T00:59:29;8.07;;;7.27;;
22256;SDS011;11297;42.686;23.374;2022-09-27T01:01:58;12.03;;;9.80;;
22256;SDS011;11297;42.686;23.374;2022-09-27T01:04:25;15.00;;;12.83;;
22256;SDS011;11297;42.686;23.374;2022-09-27T01:06:54;9.30;;;8.40;;
22256;SDS011;11297;42.686;23.374;2022-09-27T01:09:19;9.77;;;7.80;;
22256;SDS011;11297;42.686;23.374;2022-09-27T01:18:01;7.57;;;6.50;;
22256;SDS011;11297;42.686;23.374;2022-09-27T01:31:52;8.83;;;7.20;;
22256;SDS011;11297;42.686;23.374;2022-09-27T01:37:34;7.90;;;6.10;;
22256;SDS011;11297;42.686;23.374;2022-09-27T01:43:00;7.00;;;5.97;;
22256;SDS011;11297;42.686;23.374;2022-09-27T01:45:48;9.57;;;6.97;;
22256;SDS011;11297;42.686;23.374;2022-09-27T01:48:21;7.63;;;6.90;;
22256;SDS011;11297;42.686;23.374;2022-09-27T01:50:56;7.43;;;6.70;;
22256;SDS011;11297;42.686;23.374;2022-09-27T01:53:30;8.80;;;6.80;;
22256;SDS011;11297;42.686;23.374;2022-09-27T01:55:59;8.13;;;7.33;;
22256;SDS011;11297;42.686;23.374;2022-09-27T01:59:05;8.57;;;6.77;;
22256;SDS011;11297;42.686;23.374;2022-09-27T02:01:31;7.43;;;6.73;;
22256;SDS011;11297;42.686;23.374;2022-09-27T02:04:00;7.70;;;6.93;;
22256;SDS011;11297;42.686;23.374;2022-09-27T02:06:32;8.77;;;7.70;;
22256;SDS011;11297;42.686;23.374;2022-09-27T02:09:08;7.57;;;5.90;;
22256;SDS011;11297;42.686;23.374;2022-09-27T02:11:40;7.80;;;7.07;;
22256;SDS011;11297;42.686;23.374;2022-09-27T02:14:20;7.77;;;6.97;;
22256;SDS011;11297;42.686;23.374;2022-09-27T02:19:46;7.03;;;6.33;;
22256;SDS011;11297;42.686;23.374;2022-09-27T02:25:40;8.40;;;7.20;;
22256;SDS011;11297;42.686;23.374;2022-09-27T02:30:52;7.97;;;7.17;;
22256;SDS011;11297;42.686;23.374;2022-09-27T02:33:19;9.57;;;7.70;;
22256;SDS011;11297;42.686;23.374;2022-09-27T02:35:50;8.47;;;7.57;;
22256;SDS011;11297;42.686;23.374;2022-09-27T02:38:15;8.70;;;7.80;;
22256;SDS011;11297;42.686;23.374;2022-09-27T02:40:43;9.10;;;8.13;;
22256;SDS011;11297;42.686;23.374;2022-09-27T02:43:11;9.10;;;8.20;;
22256;SDS011;11297;42.686;23.374;2022-09-27T02:46:22;8.67;;;7.67;;
22256;SDS011;11297;42.686;23.374;2022-09-27T02:51:37;9.47;;;8.47;;
22256;SDS011;11297;42.686;23.374;2022-09-27T02:57:18;9.17;;;7.93;;
22256;SDS011;11297;42.686;23.374;2022-09-27T03:05:27;9.07;;;8.17;;
22256;SDS011;11297;42.686;23.374;2022-09-27T03:07:54;9.00;;;8.10;;
22256;SDS011;11297;42.686;23.374;2022-09-27T03:10:21;8.70;;;7.90;;
22256;SDS011;11297;42.686;23.374;2022-09-27T03:12:48;9.53;;;8.63;;
22256;SDS011;11297;42.686;23.374;2022-09-27T03:15:14;8.80;;;8.00;;
22256;SDS011;11297;42.686;23.374;2022-09-27T03:17:40;8.70;;;7.90;;
22256;SDS011;11297;42.686;23.374;2022-09-27T03:20:06;8.70;;;7.90;;
22256;SDS011;11297;42.686;23.374;2022-09-27T03:22:32;9.37;;;7.90;;
22256;SDS011;11297;42.686;23.374;2022-09-27T03:24:58;8.83;;;7.93;;
22256;SDS011;11297;42.686;23.374;2022-09-27T03:27:24;9.40;;;8.40;;
22256;SDS011;11297;42.686;23.374;2022-09-27T03:29:49;12.60;;;8.43;;
22256;SDS011;11297;42.686;23.374;2022-09-27T03:32:15;8.40;;;7.60;;
22256;SDS011;11297;42.686;23.374;2022-09-27T03:34:40;8.60;;;7.77;;
22256;SDS011;11297;42.686;23.374;2022-09-27T03:37:05;5.63;;;5.13;;
22256;SDS011;11297;42.686;23.374;2022-09-27T03:39:32;10.27;;;9.27;;
22256;SDS011;11297;42.686;23.374;2022-09-27T03:41:57;9.40;;;8.50;;
22256;SDS011;11297;42.686;23.374;2022-09-27T03:44:23;8.60;;;7.80;;
22256;SDS011;11297;42.686;23.374;2022-09-27T03:46:48;9.20;;;7.80;;
22256;SDS011;11297;42.686;23.374;2022-09-27T03:49:14;9.03;;;8.03;;
22256;SDS011;11297;42.686;23.374;2022-09-27T03:51:39;9.80;;;7.70;;
22256;SDS011;11297;42.686;23.374;2022-09-27T03:54:05;9.37;;;8.47;;
22256;SDS011;11297;42.686;23.374;2022-09-27T03:56:30;9.37;;;7.70;;
22256;SDS011;11297;42.686;23.374;2022-09-27T03:58:56;11.73;;;8.33;;
22256;SDS011;11297;42.686;23.374;2022-09-27T04:01:21;10.20;;;9.20;;
22256;SDS011;11297;42.686;23.374;2022-09-27T04:03:47;6.90;;;5.60;;
22256;SDS011;11297;42.686;23.374;2022-09-27T04:06:12;5.90;;;5.30;;
22256;SDS011;11297;42.686;23.374;2022-09-27T04:08:38;10.60;;;9.47;;
22256;SDS011;11297;42.686;23.374;2022-09-27T04:11:04;9.70;;;7.73;;
22256;SDS011;11297;42.686;23.374;2022-09-27T04:13:29;7.67;;;6.93;;
22256;SDS011;11297;42.686;23.374;2022-09-27T04:15:55;8.47;;;7.77;;
22256;SDS011;11297;42.686;23.374;2022-09-27T04:18:20;8.87;;;8.07;;
22256;SDS011;11297;42.686;23.374;2022-09-27T04:20:45;8.63;;;7.80;;
22256;SDS011;11297;42.686;23.374;2022-09-27T04:23:11;8.07;;;7.30;;
22256;SDS011;11297;42.686;23.374;2022-09-27T04:25:36;8.83;;;7.80;;
22256;SDS011;11297;42.686;23.374;2022-09-27T04:28:04;8.57;;;7.67;;
22256;SDS011;11297;42.686;23.374;2022-09-27T04:30:30;8.83;;;7.93;;
22256;SDS011;11297;42.686;23.374;2022-09-27T04:32:56;9.57;;;8.53;;
22256;SDS011;11297;42.686;23.374;2022-09-27T04:35:21;9.57;;;8.03;;
22256;SDS011;11297;42.686;23.374;2022-09-27T04:38:05;9.60;;;8.70;;
22256;SDS011;11297;42.686;23.374;2022-09-27T04:40:32;30.67;;;27.70;;
22256;SDS011;11297;42.686;23.374;2022-09-27T04:42:59;9.87;;;8.83;;
22256;SDS011;11297;42.686;23.374;2022-09-27T04:45:25;11.80;;;9.97;;
22256;SDS011;11297;42.686;23.374;2022-09-27T04:47:50;10.20;;;9.23;;
22256;SDS011;11297;42.686;23.374;2022-09-27T04:50:16;9.93;;;8.90;;
22256;SDS011;11297;42.686;23.374;2022-09-27T04:52:44;10.17;;;9.07;;
22256;SDS011;11297;42.686;23.374;2022-09-27T04:55:13;11.83;;;10.70;;
22256;SDS011;11297;42.686;23.374;2022-09-27T04:57:39;9.47;;;8.57;;
22256;SDS011;11297;42.686;23.374;2022-09-27T05:00:04;10.17;;;9.17;;
22256;SDS011;11297;42.686;23.374;2022-09-27T05:02:30;18.50;;;16.60;;
22256;SDS011;11297;42.686;23.374;2022-09-27T05:04:55;13.13;;;11.97;;
22256;SDS011;11297;42.686;23.374;2022-09-27T05:07:23;11.83;;;9.40;;
22256;SDS011;11297;42.686;23.374;2022-09-27T05:09:49;23.77;;;21.23;;
22256;SDS011;11297;42.686;23.374;2022-09-27T05:12:14;14.37;;;12.97;;
22256;SDS011;11297;42.686;23.374;2022-09-27T05:14:40;11.40;;;9.57;;
22256;SDS011;11297;42.686;23.374;2022-09-27T05:17:05;12.30;;;9.50;;
22256;SDS011;11297;42.686;23.374;2022-09-27T05:19:34;11.90;;;9.97;;
22256;SDS011;11297;42.686;23.374;2022-09-27T05:21:59;12.47;;;11.10;;
22256;SDS011;11297;42.686;23.374;2022-09-27T05:24:25;14.20;;;10.27;;
22256;SDS011;11297;42.686;23.374;2022-09-27T05:26:52;13.73;;;12.50;;
22256;SDS011;11297;42.686;23.374;2022-09-27T05:29:18;13.63;;;12.23;;
22256;SDS011;11297;42.686;23.374;2022-09-27T05:31:43;13.87;;;11.27;;
22256;SDS011;11297;42.686;23.374;2022-09-27T05:34:09;14.17;;;12.27;;
22256;SDS011;11297;42.686;23.374;2022-09-27T05:36:36;27.87;;;23.07;;
22256;SDS011;11297;42.686;23.374;2022-09-27T05:39:02;13.40;;;11.17;;
22256;SDS011;11297;42.686;23.374;2022-09-27T05:41:28;10.93;;;9.83;;
22256;SDS011;11297;42.686;23.374;2022-09-27T05:43:55;12.13;;;10.40;;
22256;SDS011;11297;42.686;23.374;2022-09-27T05:46:21;11.13;;;9.90;;
22256;SDS011;11297;42.686;23.374;2022-09-27T05:48:46;11.50;;;10.17;;
22256;SDS011;11297;42.686;23.374;2022-09-27T05:51:11;14.53;;;13.00;;
22256;SDS011;11297;42.686;23.374;2022-09-27T05:53:38;12.07;;;10.77;;
22256;SDS011;11297;42.686;23.374;2022-09-27T05:56:03;12.70;;;11.33;;
22256;SDS011;11297;42.686;23.374;2022-09-27T05:58:29;11.47;;;10.37;;
22256;SDS011;11297;42.686;23.374;2022-09-27T06:00:55;13.53;;;12.17;;
22256;SDS011;11297;42.686;23.374;2022-09-27T06:03:20;12.47;;;11.10;;
22256;SDS011;11297;42.686;23.374;2022-09-27T06:05:45;12.97;;;11.60;;
22256;SDS011;11297;42.686;23.374;2022-09-27T06:08:12;14.20;;;12.73;;
22256;SDS011;11297;42.686;23.374;2022-09-27T06:10:38;13.70;;;12.30;;
22256;SDS011;11297;42.686;23.374;2022-09-27T06:13:06;14.27;;;12.80;;
22256;SDS011;11297;42.686;23.374;2022-09-27T06:15:34;14.60;;;13.17;;
22256;SDS011;11297;42.686;23.374;2022-09-27T06:18:05;19.17;;;17.27;;
22256;SDS011;11297;42.686;23.374;2022-09-27T06:20:33;18.73;;;14.77;;
22256;SDS011;11297;42.686;23.374;2022-09-27T06:23:03;19.07;;;17.17;;
22256;SDS011;11297;42.686;23.374;2022-09-27T06:25:29;18.93;;;14.30;;
22256;SDS011;11297;42.686;23.374;2022-09-27T06:27:54;16.73;;;15.03;;
22256;SDS011;11297;42.686;23.374;2022-09-27T06:30:20;15.17;;;13.67;;
22256;SDS011;11297;42.686;23.374;2022-09-27T06:32:45;16.63;;;13.33;;
22256;SDS011;11297;42.686;23.374;2022-09-27T06:35:11;19.10;;;17.23;;
22256;SDS011;11297;42.686;23.374;2022-09-27T06:37:36;15.47;;;13.80;;
22256;SDS011;11297;42.686;23.374;2022-09-27T06:40:01;15.77;;;14.17;;
22256;SDS011;11297;42.686;23.374;2022-09-27T06:42:27;15.87;;;14.27;;
22256;SDS011;11297;42.686;23.374;2022-09-27T06:44:54;16.77;;;15.00;;
22256;SDS011;11297;42.686;23.374;2022-09-27T06:47:19;20.37;;;15.17;;
22256;SDS011;11297;42.686;23.374;2022-09-27T06:49:45;16.97;;;15.07;;
22256;SDS011;11297;42.686;23.374;2022-09-27T06:52:10;16.10;;;14.50;;
22256;SDS011;11297;42.686;23.374;2022-09-27T06:54:36;15.77;;;13.67;;
22256;SDS011;11297;42.686;23.374;2022-09-27T06:57:01;14.90;;;13.40;;
22256;SDS011;11297;42.686;23.374;2022-09-27T06:59:27;13.33;;;12.00;;
22256;SDS011;11297;42.686;23.374;2022-09-27T07:02:10;13.70;;;11.40;;
22256;SDS011;11297;42.686;23.374;2022-09-27T07:04:37;11.53;;;10.43;;
22256;SDS011;11297;42.686;23.374;2022-09-27T07:07:03;9.83;;;8.83;;
22256;SDS011;11297;42.686;23.374;2022-09-27T07:09:29;12.07;;;10.53;;
22256;SDS011;11297;42.686;23.374;2022-09-27T07:11:54;11.90;;;10.20;;
22256;SDS011;11297;42.686;23.374;2022-09-27T07:14:20;10.20;;;9.20;;
22256;SDS011;11297;42.686;23.374;2022-09-27T07:16:45;14.07;;;12.57;;
22256;SDS011;11297;42.686;23.374;2022-09-27T07:19:11;29.50;;;26.53;;
22256;SDS011;11297;42.686;23.374;2022-09-27T07:21:38;42.20;;;38.20;;
22256;SDS011;11297;42.686;23.374;2022-09-27T07:24:04;28.47;;;25.87;;
22256;SDS011;11297;42.686;23.374;2022-09-27T07:26:29;32.03;;;29.00;;
22256;SDS011;11297;42.686;23.374;2022-09-27T07:28:55;16.70;;;14.93;;
22256;SDS011;11297;42.686;23.374;2022-09-27T07:31:21;16.50;;;14.77;;
22256;SDS011;11297;42.686;23.374;2022-09-27T07:33:47;13.10;;;10.10;;
22256;SDS011;11297;42.686;23.374;2022-09-27T07:36:12;12.87;;;11.57;;
22256;SDS011;11297;42.686;23.374;2022-09-27T07:38:38;22.73;;;17.83;;
22256;SDS011;11297;42.686;23.374;2022-09-27T07:41:11;18.43;;;15.13;;
22256;SDS011;11297;42.686;23.374;2022-09-27T07:43:39;11.80;;;10.60;;
22256;SDS011;11297;42.686;23.374;2022-09-27T07:46:05;12.27;;;11.10;;
22256;SDS011;11297;42.686;23.374;2022-09-27T07:48:31;13.67;;;12.13;;
22256;SDS011;11297;42.686;23.374;2022-09-27T07:50:57;13.03;;;11.80;;
22256;SDS011;11297;42.686;23.374;2022-09-27T07:53:23;14.37;;;12.83;;
22256;SDS011;11297;42.686;23.374;2022-09-27T07:55:52;9.10;;;6.87;;
22256;SDS011;11297;42.686;23.374;2022-09-27T07:58:18;12.60;;;10.93;;
22256;SDS011;11297;42.686;23.374;2022-09-27T08:00:44;6.83;;;6.13;;
22256;SDS011;11297;42.686;23.374;2022-09-27T08:03:11;7.67;;;6.47;;
22256;SDS011;11297;42.686;23.374;2022-09-27T08:05:49;7.23;;;5.83;;
22256;SDS011;11297;42.686;23.374;2022-09-27T08:08:15;7.07;;;6.20;;
22256;SDS011;11297;42.686;23.374;2022-09-27T08:10:41;10.17;;;8.63;;
22256;SDS011;11297;42.686;23.374;2022-09-27T08:13:09;9.60;;;8.80;;
22256;SDS011;11297;42.686;23.374;2022-09-27T08:15:35;10.07;;;9.17;;
22256;SDS011;11297;42.686;23.374;2022-09-27T08:18:02;22.30;;;20.13;;
22256;SDS011;11297;42.686;23.374;2022-09-27T08:20:27;10.83;;;9.70;;
22256;SDS011;11297;42.686;23.374;2022-09-27T08:22:53;10.10;;;9.10;;
22256;SDS011;11297;42.686;23.374;2022-09-27T08:25:18;15.77;;;13.30;;
22256;SDS011;11297;42.686;23.374;2022-09-27T08:27:53;16.13;;;14.20;;
22256;SDS011;11297;42.686;23.374;2022-09-27T08:30:20;15.43;;;13.97;;
22256;SDS011;11297;42.686;23.374;2022-09-27T08:32:46;17.33;;;15.53;;
22256;SDS011;11297;42.686;23.374;2022-09-27T08:35:11;16.77;;;14.93;;
22256;SDS011;11297;42.686;23.374;2022-09-27T08:37:39;16.37;;;14.03;;
22256;SDS011;11297;42.686;23.374;2022-09-27T08:40:04;10.77;;;9.73;;
22256;SDS011;11297;42.686;23.374;2022-09-27T08:50:19;14.07;;;12.43;;
22256;SDS011;11297;42.686;23.374;2022-09-27T08:52:57;13.80;;;12.37;;
22256;SDS011;11297;42.686;23.374;2022-09-27T08:58:15;12.87;;;11.47;;
22256;SDS011;11297;42.686;23.374;2022-09-27T09:00:49;12.93;;;11.23;;
22256;SDS011;11297;42.686;23.374;2022-09-27T09:03:19;14.17;;;12.53;;
22256;SDS011;11297;42.686;23.374;2022-09-27T09:05:51;12.47;;;11.17;;
22256;SDS011;11297;42.686;23.374;2022-09-27T09:28:55;10.03;;;9.13;;
22256;SDS011;11297;42.686;23.374;2022-09-27T09:31:43;11.00;;;9.90;;
22256;SDS011;11297;42.686;23.374;2022-09-27T09:34:35;11.47;;;10.47;;
22256;SDS011;11297;42.686;23.374;2022-09-27T09:37:15;15.23;;;11.40;;
22256;SDS011;11297;42.686;23.374;2022-09-27T09:42:57;9.13;;;8.37;;
22256;SDS011;11297;42.686;23.374;2022-09-27T09:45:27;9.43;;;8.30;;
22256;SDS011;11297;42.686;23.374;2022-09-27T09:50:45;11.90;;;9.50;;
22256;SDS011;11297;42.686;23.374;2022-09-27T09:53:18;11.00;;;9.47;;
22256;SDS011;11297;42.686;23.374;2022-09-27T09:55:58;9.73;;;7.97;;
22256;SDS011;11297;42.686;23.374;2022-09-27T09:58:28;8.73;;;7.83;;
22256;SDS011;11297;42.686;23.374;2022-09-27T10:00:58;9.63;;;8.23;;
22256;SDS011;11297;42.686;23.374;2022-09-27T10:03:33;10.90;;;9.87;;
22256;SDS011;11297;42.686;23.374;2022-09-27T10:05:58;11.03;;;9.93;;
22256;SDS011;11297;42.686;23.374;2022-09-27T10:08:24;12.43;;;9.50;;
22256;SDS011;11297;42.686;23.374;2022-09-27T10:10:49;9.67;;;8.87;;
22256;SDS011;11297;42.686;23.374;2022-09-27T10:13:16;9.77;;;8.80;;
22256;SDS011;11297;42.686;23.374;2022-09-27T10:15:49;10.00;;;9.00;;
22256;SDS011;11297;42.686;23.374;2022-09-27T10:18:20;9.90;;;8.93;;
22256;SDS011;11297;42.686;23.374;2022-09-27T10:20:48;12.97;;;9.57;;
22256;SDS011;11297;42.686;23.374;2022-09-27T10:23:17;9.50;;;8.63;;
22256;SDS011;11297;42.686;23.374;2022-09-27T10:28:25;10.10;;;9.20;;
22256;SDS011;11297;42.686;23.374;2022-09-27T10:30:56;10.93;;;9.93;;
22256;SDS011;11297;42.686;23.374;2022-09-27T10:33:24;9.80;;;8.90;;
22256;SDS011;11297;42.686;23.374;2022-09-27T10:35:49;9.20;;;8.40;;
22256;SDS011;11297;42.686;23.374;2022-09-27T10:40:45;10.30;;;7.80;;
22256;SDS011;11297;42.686;23.374;2022-09-27T10:46:05;8.77;;;7.97;;
22256;SDS011;11297;42.686;23.374;2022-09-27T10:48:34;8.80;;;8.00;;
22256;SDS011;11297;42.686;23.374;2022-09-27T10:51:03;8.30;;;7.50;;
22256;SDS011;11297;42.686;23.374;2022-09-27T10:53:30;5.30;;;4.80;;
22256;SDS011;11297;42.686;23.374;2022-09-27T10:55:58;6.33;;;5.43;;
22256;SDS011;11297;42.686;23.374;2022-09-27T10:58:28;8.53;;;7.63;;
22256;SDS011;11297;42.686;23.374;2022-09-27T11:01:15;9.57;;;8.77;;
22256;SDS011;11297;42.686;23.374;2022-09-27T11:03:48;9.17;;;7.40;;
22256;SDS011;11297;42.686;23.374;2022-09-27T11:08:48;7.33;;;6.63;;
22256;SDS011;11297;42.686;23.374;2022-09-27T11:13:40;8.00;;;7.20;;
22256;SDS011;11297;42.686;23.374;2022-09-27T11:31:19;6.80;;;6.20;;
22256;SDS011;11297;42.686;23.374;2022-09-27T11:40:08;6.83;;;5.93;;
22256;SDS011;11297;42.686;23.374;2022-09-27T11:51:07;4.53;;;4.20;;
22256;SDS011;11297;42.686;23.374;2022-09-27T11:53:41;6.63;;;6.00;;
22256;SDS011;11297;42.686;23.374;2022-09-27T12:10:16;6.30;;;5.80;;
22256;SDS011;11297;42.686;23.374;2022-09-27T12:12:43;7.43;;;6.83;;
22256;SDS011;11297;42.686;23.374;2022-09-27T12:15:33;9.27;;;8.13;;
22256;SDS011;11297;42.686;23.374;2022-09-27T12:20:33;8.63;;;7.83;;
22256;SDS011;11297;42.686;23.374;2022-09-27T12:23:14;7.20;;;6.40;;
22256;SDS011;11297;42.686;23.374;2022-09-27T12:25:45;10.47;;;6.20;;
22256;SDS011;11297;42.686;23.374;2022-09-27T12:31:20;6.37;;;5.77;;
22256;SDS011;11297;42.686;23.374;2022-09-27T12:36:44;5.80;;;5.30;;
22256;SDS011;11297;42.686;23.374;2022-09-27T12:39:21;6.57;;;5.90;;
22256;SDS011;11297;42.686;23.374;2022-09-27T12:41:56;7.10;;;6.13;;
22256;SDS011;11297;42.686;23.374;2022-09-27T12:44:36;7.53;;;5.47;;
22256;SDS011;11297;42.686;23.374;2022-09-27T12:49:41;5.13;;;4.67;;
22256;SDS011;11297;42.686;23.374;2022-09-27T12:52:28;5.50;;;5.00;;
22256;SDS011;11297;42.686;23.374;2022-09-27T12:55:04;5.93;;;4.73;;
22256;SDS011;11297;42.686;23.374;2022-09-27T13:00:21;5.50;;;5.00;;
22256;SDS011;11297;42.686;23.374;2022-09-27T13:03:00;7.07;;;5.13;;
22256;SDS011;11297;42.686;23.374;2022-09-27T13:08:40;5.60;;;5.10;;
22256;SDS011;11297;42.686;23.374;2022-09-27T13:14:24;5.63;;;4.70;;
22256;SDS011;11297;42.686;23.374;2022-09-27T13:16:52;5.33;;;4.77;;
22256;SDS011;11297;42.686;23.374;2022-09-27T13:22:34;5.13;;;4.73;;
22256;SDS011;11297;42.686;23.374;2022-09-27T13:25:02;6.23;;;5.43;;
22256;SDS011;11297;42.686;23.374;2022-09-27T13:27:48;4.53;;;4.13;;
22256;SDS011;11297;42.686;23.374;2022-09-27T13:35:34;4.97;;;4.47;;
22256;SDS011;11297;42.686;23.374;2022-09-27T13:38:00;4.40;;;4.00;;
22256;SDS011;11297;42.686;23.374;2022-09-27T13:40:28;5.27;;;4.37;;
22256;SDS011;11297;42.686;23.374;2022-09-27T13:45:57;5.03;;;4.13;;
22256;SDS011;11297;42.686;23.374;2022-09-27T13:51:04;13.80;;;6.03;;
22256;SDS011;11297;42.686;23.374;2022-09-27T13:53:41;6.53;;;4.83;;
22256;SDS011;11297;42.686;23.374;2022-09-27T13:59:01;7.27;;;5.53;;
22256;SDS011;11297;42.686;23.374;2022-09-27T14:01:33;5.97;;;4.70;;
22256;SDS011;11297;42.686;23.374;2022-09-27T14:04:20;4.40;;;3.97;;
22256;SDS011;11297;42.686;23.374;2022-09-27T14:06:54;4.13;;;2.97;;
22256;SDS011;11297;42.686;23.374;2022-09-27T14:09:25;4.03;;;3.33;;
22256;SDS011;11297;42.686;23.374;2022-09-27T14:11:58;4.60;;;3.73;;
22256;SDS011;11297;42.686;23.374;2022-09-27T14:14:26;6.33;;;3.60;;
22256;SDS011;11297;42.686;23.374;2022-09-27T14:16:54;6.13;;;4.20;;
22256;SDS011;11297;42.686;23.374;2022-09-27T14:19:23;5.77;;;3.33;;
22256;SDS011;11297;42.686;23.374;2022-09-27T14:21:50;5.13;;;3.10;;
22256;SDS011;11297;42.686;23.374;2022-09-27T14:25:01;3.30;;;3.00;;
22256;SDS011;11297;42.686;23.374;2022-09-27T14:27:18;3.43;;;2.83;;
22256;SDS011;11297;42.686;23.374;2022-09-27T14:32:15;3.97;;;2.57;;
22256;SDS011;11297;42.686;23.374;2022-09-27T14:34:42;5.50;;;2.90;;
22256;SDS011;11297;42.686;23.374;2022-09-27T14:37:26;4.13;;;2.90;;
22256;SDS011;11297;42.686;23.374;2022-09-27T14:40:05;3.10;;;2.80;;
22256;SDS011;11297;42.686;23.374;2022-09-27T14:42:43;2.93;;;2.67;;
22256;SDS011;11297;42.686;23.374;2022-09-27T14:45:17;3.50;;;2.90;;
22256;SDS011;11297;42.686;23.374;2022-09-27T14:47:49;2.83;;;2.53;;
22256;SDS011;11297;42.686;23.374;2022-09-27T14:50:20;3.27;;;2.57;;
22256;SDS011;11297;42.686;23.374;2022-09-27T14:52:48;2.70;;;2.37;;
22256;SDS011;11297;42.686;23.374;2022-09-27T14:55:20;6.27;;;5.00;;
22256;SDS011;11297;42.686;23.374;2022-09-27T14:57:51;3.87;;;3.57;;
22256;SDS011;11297;42.686;23.374;2022-09-27T15:00:28;3.23;;;2.73;;
22256;SDS011;11297;42.686;23.374;2022-09-27T15:02:56;3.93;;;3.53;;
22256;SDS011;11297;42.686;23.374;2022-09-27T15:05:28;4.57;;;3.30;;
22256;SDS011;11297;42.686;23.374;2022-09-27T15:07:56;3.53;;;3.13;;
22256;SDS011;11297;42.686;23.374;2022-09-27T15:10:27;4.60;;;2.80;;
22256;SDS011;11297;42.686;23.374;2022-09-27T15:12:57;3.40;;;3.10;;
22256;SDS011;11297;42.686;23.374;2022-09-27T15:15:32;3.63;;;3.30;;
22256;SDS011;11297;42.686;23.374;2022-09-27T15:18:00;6.50;;;3.97;;
22256;SDS011;11297;42.686;23.374;2022-09-27T15:20:33;4.13;;;2.43;;
22256;SDS011;11297;42.686;23.374;2022-09-27T15:23:00;2.80;;;1.20;;
22256;SDS011;11297;42.686;23.374;2022-09-27T15:26:05;2.77;;;1.50;;
22256;SDS011;11297;42.686;23.374;2022-09-27T15:28:43;1.63;;;1.50;;
22256;SDS011;11297;42.686;23.374;2022-09-27T15:31:13;2.83;;;1.70;;
22256;SDS011;11297;42.686;23.374;2022-09-27T15:33:39;1.80;;;1.60;;
22256;SDS011;11297;42.686;23.374;2022-09-27T15:36:09;2.73;;;2.00;;
22256;SDS011;11297;42.686;23.374;2022-09-27T15:38:39;1.67;;;1.50;;
22256;SDS011;11297;42.686;23.374;2022-09-27T15:41:12;3.50;;;2.27;;
22256;SDS011;11297;42.686;23.374;2022-09-27T15:43:43;7.97;;;4.43;;
22256;SDS011;11297;42.686;23.374;2022-09-27T15:46:35;8.00;;;3.17;;
22256;SDS011;11297;42.686;23.374;2022-09-27T15:51:40;5.43;;;2.53;;
22256;SDS011;11297;42.686;23.374;2022-09-27T15:54:07;6.13;;;3.00;;
22256;SDS011;11297;42.686;23.374;2022-09-27T15:56:33;5.17;;;2.70;;
22256;SDS011;11297;42.686;23.374;2022-09-27T15:58:59;3.70;;;2.83;;
22256;SDS011;11297;42.686;23.374;2022-09-27T16:01:24;3.73;;;2.67;;
22256;SDS011;11297;42.686;23.374;2022-09-27T16:03:50;4.50;;;2.87;;
22256;SDS011;11297;42.686;23.374;2022-09-27T16:06:15;6.00;;;2.60;;
22256;SDS011;11297;42.686;23.374;2022-09-27T16:08:42;4.60;;;2.93;;
22256;SDS011;11297;42.686;23.374;2022-09-27T16:11:11;5.77;;;2.40;;
22256;SDS011;11297;42.686;23.374;2022-09-27T16:13:39;3.23;;;2.60;;
22256;SDS011;11297;42.686;23.374;2022-09-27T16:16:05;3.00;;;2.70;;
22256;SDS011;11297;42.686;23.374;2022-09-27T16:18:30;5.13;;;2.47;;
22256;SDS011;11297;42.686;23.374;2022-09-27T16:20:57;4.47;;;3.10;;
22256;SDS011;11297;42.686;23.374;2022-09-27T16:23:23;5.40;;;3.23;;
22256;SDS011;11297;42.686;23.374;2022-09-27T16:25:50;3.33;;;2.47;;
22256;SDS011;11297;42.686;23.374;2022-09-27T16:28:16;3.87;;;2.67;;
22256;SDS011;11297;42.686;23.374;2022-09-27T16:30:42;2.60;;;2.10;;
22256;SDS011;11297;42.686;23.374;2022-09-27T16:33:09;3.20;;;1.83;;
22256;SDS011;11297;42.686;23.374;2022-09-27T16:35:37;2.63;;;2.43;;
22256;SDS011;11297;42.686;23.374;2022-09-27T16:38:05;4.87;;;3.93;;
22256;SDS011;11297;42.686;23.374;2022-09-27T16:40:30;2.50;;;2.30;;
22256;SDS011;11297;42.686;23.374;2022-09-27T16:42:56;2.63;;;2.20;;
22256;SDS011;11297;42.686;23.374;2022-09-27T16:45:22;5.27;;;2.23;;
22256;SDS011;11297;42.686;23.374;2022-09-27T16:47:48;4.70;;;3.10;;
22256;SDS011;11297;42.686;23.374;2022-09-27T16:50:14;4.60;;;2.97;;
22256;SDS011;11297;42.686;23.374;2022-09-27T16:52:58;3.63;;;2.30;;
22256;SDS011;11297;42.686;23.374;2022-09-27T16:55:24;2.80;;;2.40;;
22256;SDS011;11297;42.686;23.374;2022-09-27T16:57:52;3.40;;;2.17;;
22256;SDS011;11297;42.686;23.374;2022-09-27T17:00:18;3.50;;;2.67;;
22256;SDS011;11297;42.686;23.374;2022-09-27T17:02:46;3.43;;;2.77;;
22256;SDS011;11297;42.686;23.374;2022-09-27T17:05:12;4.60;;;2.20;;
22256;SDS011;11297;42.686;23.374;2022-09-27T17:07:38;4.10;;;2.53;;
22256;SDS011;11297;42.686;23.374;2022-09-27T17:10:04;15.30;;;11.10;;
22256;SDS011;11297;42.686;23.374;2022-09-27T17:12:30;9.97;;;6.83;;
22256;SDS011;11297;42.686;23.374;2022-09-27T17:14:56;6.93;;;5.90;;
22256;SDS011;11297;42.686;23.374;2022-09-27T17:17:22;10.70;;;9.00;;
22256;SDS011;11297;42.686;23.374;2022-09-27T17:19:47;16.90;;;13.30;;
22256;SDS011;11297;42.686;23.374;2022-09-27T17:22:13;15.83;;;11.60;;
22256;SDS011;11297;42.686;23.374;2022-09-27T17:24:38;11.30;;;7.37;;
22256;SDS011;11297;42.686;23.374;2022-09-27T17:27:03;8.40;;;6.77;;
22256;SDS011;11297;42.686;23.374;2022-09-27T17:29:29;10.77;;;8.30;;
22256;SDS011;11297;42.686;23.374;2022-09-27T17:31:55;13.40;;;8.90;;
22256;SDS011;11297;42.686;23.374;2022-09-27T17:34:20;7.60;;;4.13;;
22256;SDS011;11297;42.686;23.374;2022-09-27T17:36:46;12.47;;;9.27;;